Time;durP1;ratioP1;P1;durP2;ratioP2;P2;SDS_P1;SDS_P2;PMS_P1;PMS_P2;Temp;Humidity;BMP_temperature;BMP_pressure;BME280_temperature;BME280_humidity;BME280_pressure;Samples;Min_cycle;Max_cycle;Signal;HPM_P1;HPM_P2
2022/12/06 00:01:12;;;;;;;;;45.75;35.50;;;;;1.21;81.21;101008.72;5056750;28;45437;-87
2022/12/06 00:03:38;;;;;;;;;36.75;30.00;;;;;1.12;81.50;100990.25;5078035;28;45418;-88
2022/12/06 00:06:07;;;;;;;;;36.25;32.50;;;;;3.01;81.04;101312.06;5062505;28;45393;-88
2022/12/06 00:08:32;;;;;;;;;34.75;31.00;;;;;1.77;81.11;101098.69;5081818;28;45378;-87
2022/12/06 00:11:06;;;;;;;;;40.25;37.00;;;;;2.63;81.18;101245.94;5062789;28;45318;-88
2022/12/06 00:13:32;;;;;;;;;45.75;34.50;;;;;3.04;81.49;101295.59;5076364;28;45390;-87
2022/12/06 00:16:06;;;;;;;;;36.75;31.25;;;;;2.61;80.97;101216.28;5069888;28;46232;-89
2022/12/06 00:18:33;;;;;;;;;35.75;31.75;;;;;1.91;81.50;101091.19;5040457;28;45432;-90
2022/12/06 00:21:15;;;;;;;;;38.25;34.50;;;;;3.09;81.28;101298.31;5044893;28;45486;-90
2022/12/06 00:23:43;;;;;;;;;40.00;32.50;;;;;2.67;81.61;101235.59;5040868;28;45319;-89
2022/12/06 00:26:09;;;;;;;;;35.25;32.00;;;;;1.87;81.42;101085.03;5075441;28;45501;-90
2022/12/06 00:28:36;;;;;;;;;37.00;30.50;;;;;3.13;81.36;101300.16;5067787;28;45870;-90
2022/12/06 00:31:07;;;;;;;;;40.25;33.00;;;;;2.27;81.33;101126.81;5086419;28;45234;-89
2022/12/06 00:33:34;;;;;;;;;34.25;31.00;;;;;3.13;81.17;101284.47;5072273;28;45340;-90
2022/12/06 00:36:02;;;;;;;;;39.25;34.50;;;;;2.24;81.03;101119.78;5071149;28;47237;-89
2022/12/06 00:38:29;;;;;;;;;34.75;29.75;;;;;1.85;81.49;101058.03;5063707;28;45485;-89
2022/12/06 00:41:04;;;;;;;;;28.50;27.00;;;;;2.14;80.91;101112.56;5063480;28;45454;-90
2022/12/06 00:43:30;;;;;;;;;37.00;32.75;;;;;1.46;81.12;101004.13;5085435;28;45364;-90
2022/12/06 00:45:56;;;;;;;;;36.75;35.25;;;;;1.64;81.28;101037.56;5063551;28;46990;-90
2022/12/06 00:48:22;;;;;;;;;37.25;30.50;;;;;2.39;81.76;101152.28;5046844;28;45345;-89
2022/12/06 00:50:48;;;;;;;;;33.50;31.75;;;;;2.13;81.43;101114.31;5044626;28;45467;-89
2022/12/06 00:53:14;;;;;;;;;36.00;32.00;;;;;3.07;81.65;101258.19;5062367;28;45385;-90
2022/12/06 00:55:42;;;;;;;;;37.25;32.00;;;;;3.12;81.71;101267.03;5073223;28;45387;-89
2022/12/06 00:58:07;;;;;;;;;56.75;42.75;;;;;2.00;81.75;101074.88;5084401;28;45358;-90
2022/12/06 01:00:33;;;;;;;;;61.00;48.75;;;;;2.47;81.67;101180.31;5069036;28;45386;-89
2022/12/06 01:02:58;;;;;;;;;39.00;32.25;;;;;1.89;81.70;101057.25;5041722;28;45368;-90
2022/12/06 01:05:24;;;;;;;;;88.75;65.50;;;;;1.81;81.49;101051.00;5051395;28;46722;-90
2022/12/06 01:07:49;;;;;;;;;49.75;38.50;;;;;2.75;81.46;101204.44;5065272;28;45572;-90
2022/12/06 01:10:15;;;;;;;;;41.50;32.75;;;;;3.17;81.37;101274.13;5062053;28;45437;-90
2022/12/06 01:12:40;;;;;;;;;41.50;38.25;;;;;2.45;81.39;101142.88;5062969;28;45023;-89
2022/12/06 01:15:06;;;;;;;;;39.75;36.00;;;;;2.43;81.06;101141.06;5065215;28;46122;-89
2022/12/06 01:17:33;;;;;;;;;47.50;38.75;;;;;2.53;81.64;101156.06;5049108;28;45431;-89
2022/12/06 01:19:59;;;;;;;;;44.00;35.25;;;;;1.30;81.59;100957.72;5047492;28;45277;-89
2022/12/06 01:22:24;;;;;;;;;37.50;32.00;;;;;2.06;81.45;101088.06;5064055;28;45546;-88
2022/12/06 01:24:49;;;;;;;;;38.00;35.25;;;;;2.69;81.61;101192.94;5044914;28;46628;-87
2022/12/06 01:27:15;;;;;;;;;41.25;37.00;;;;;2.64;80.90;101188.53;5060175;28;45407;-87
2022/12/06 01:29:40;;;;;;;;;42.25;37.25;;;;;3.21;81.61;101277.69;5059218;28;45225;-88
2022/12/06 01:32:06;;;;;;;;;47.00;33.25;;;;;1.97;81.23;101057.44;5080683;28;45370;-88
2022/12/06 01:34:31;;;;;;;;;36.50;34.00;;;;;2.80;81.88;101194.97;5062750;28;47296;-88
2022/12/06 01:36:57;;;;;;;;;35.00;34.25;;;;;2.99;81.36;101222.38;5061875;28;45865;-87
2022/12/06 01:39:22;;;;;;;;;43.75;38.50;;;;;2.24;81.78;101091.06;5058071;28;45451;-87
2022/12/06 01:41:50;;;;;;;;;39.50;28.75;;;;;3.27;81.70;101264.75;5053820;28;45546;-87
2022/12/06 01:44:37;;;;;;;;;44.75;39.00;;;;;3.28;81.66;101261.28;5047705;28;46882;-87
2022/12/06 01:47:03;;;;;;;;;35.75;30.25;;;;;2.25;81.81;101081.53;5041355;28;45450;-86
2022/12/06 01:49:33;;;;;;;;;35.75;35.75;;;;;2.94;81.51;101195.25;5058296;28;45443;-87
2022/12/06 01:52:02;;;;;;;;;29.25;24.50;;;;;3.32;81.39;101265.69;5036856;28;45412;-87
2022/12/06 01:54:29;;;;;;;;;35.00;30.25;;;;;2.88;81.68;101192.50;5038757;28;46357;-87
2022/12/06 01:56:57;;;;;;;;;33.75;29.25;;;;;2.09;81.40;101064.66;5050285;28;45493;-87
2022/12/06 01:59:24;;;;;;;;;33.75;30.25;;;;;2.63;81.91;101168.50;5060708;28;45339;-87
2022/12/06 02:01:50;;;;;;;;;47.75;40.75;;;;;1.39;81.20;100953.59;5078943;28;45408;-89
2022/12/06 02:04:17;;;;;;;;;43.00;32.50;;;;;3.27;81.99;101272.56;5066201;28;46040;-89
2022/12/06 02:06:44;;;;;;;;;31.00;28.25;;;;;2.25;81.50;101112.84;5053234;28;45451;-89
2022/12/06 02:09:11;;;;;;;;;39.75;35.50;;;;;2.10;81.22;101079.47;5042478;28;45309;-90
2022/12/06 02:11:37;;;;;;;;;37.25;30.75;;;;;3.24;81.72;101275.13;5057737;28;45506;-89
2022/12/06 02:14:07;;;;;;;;;40.25;33.50;;;;;3.25;81.58;101276.91;5064944;28;45610;-89
2022/12/06 02:16:41;;;;;;;;;35.25;30.25;;;;;2.64;81.88;101185.03;5062306;28;45389;-89
2022/12/06 02:19:29;;;;;;;;;40.50;32.75;;;;;3.25;82.15;101274.28;5064314;28;45471;-89
2022/12/06 02:21:59;;;;;;;;;33.50;28.00;;;;;2.91;82.40;101223.03;5053146;28;44753;-89
2022/12/06 02:24:58;;;;;;;;;37.00;30.00;;;;;3.24;81.75;101274.25;5064918;28;45518;-89
2022/12/06 02:27:38;;;;;;;;;30.50;20.75;;;;;3.24;81.41;101277.75;5057243;28;45506;-86
2022/12/06 02:30:10;;;;;;;;;30.75;27.25;;;;;2.83;81.72;101212.44;5039925;28;45484;-87
2022/12/06 02:33:11;;;;;;;;;29.25;25.75;;;;;2.81;81.56;101201.97;5059683;28;45532;-87
2022/12/06 02:35:47;;;;;;;;;36.25;29.25;;;;;3.24;81.49;101277.75;4980841;28;46907;-87
2022/12/06 02:38:21;;;;;;;;;34.75;30.25;;;;;2.97;81.73;101239.72;4996543;28;45511;-87
2022/12/06 02:40:53;;;;;;;;;34.75;27.00;;;;;2.61;82.06;101170.19;4978903;28;45532;-87
2022/12/06 02:43:25;;;;;;;;;34.25;28.25;;;;;2.78;81.85;101206.22;4997720;28;45680;-87
2022/12/06 02:45:55;;;;;;;;;33.75;24.50;;;;;3.24;81.88;101266.41;4997689;28;45624;-86
2022/12/06 02:48:24;;;;;;;;;18.75;17.50;;;;;3.05;82.07;101229.44;4993321;28;45510;-87
2022/12/06 02:50:58;;;;;;;;;38.00;28.50;;;;;2.30;82.77;101112.09;4978621;28;45495;-87
2022/12/06 02:53:26;;;;;;;;;32.00;25.75;;;;;2.65;82.29;101164.16;4984525;28;45513;-87
2022/12/06 02:55:52;;;;;;;;;42.00;32.25;;;;;2.02;81.67;101057.53;4974869;28;48039;-87
2022/12/06 02:58:18;;;;;;;;;29.25;27.00;;;;;1.95;82.11;101041.75;4957243;28;45524;-87
2022/12/06 03:00:52;;;;;;;;;30.50;26.25;;;;;3.18;81.55;101244.53;4965475;28;45511;-87
2022/12/06 03:03:45;;;;;;;;;25.25;18.25;;;;;3.28;82.07;101268.22;4974595;28;45520;-88
2022/12/06 03:06:41;;;;;;;;;27.00;22.50;;;;;3.27;82.46;101264.75;4961122;28;47740;-87
2022/12/06 03:09:26;;;;;;;;;34.00;30.75;;;;;3.27;82.20;101266.47;4955536;28;45438;-88
2022/12/06 03:12:12;;;;;;;;;32.00;27.25;;;;;3.25;82.51;101269.06;4991955;28;45603;-88
2022/12/06 03:15:02;;;;;;;;;26.50;23.25;;;;;3.25;82.75;101266.44;5037881;28;45387;-88
2022/12/06 03:17:35;;;;;;;;;28.00;23.25;;;;;3.29;81.99;101264.78;5060818;28;45411;-87
2022/12/06 03:20:10;;;;;;;;;38.75;30.25;;;;;2.88;82.06;101204.69;5049373;28;45496;-87
2022/12/06 03:22:41;;;;;;;;;31.25;27.75;;;;;2.23;82.21;101091.03;5038152;28;45369;-87
2022/12/06 03:25:09;;;;;;;;;34.00;29.25;;;;;2.06;82.05;101085.44;5036703;28;45339;-87
2022/12/06 03:27:37;;;;;;;;;33.00;26.75;;;;;3.01;82.75;101228.50;5032913;28;46599;-87
2022/12/06 03:30:07;;;;;;;;;33.75;26.25;;;;;1.34;82.57;100946.53;5073689;28;45453;-86
2022/12/06 03:32:36;;;;;;;;;31.75;27.75;;;;;2.37;82.74;101130.47;5042457;28;45486;-87
2022/12/06 03:35:07;;;;;;;;;38.25;24.75;;;;;2.79;82.63;101194.94;5061567;28;45467;-87
2022/12/06 03:37:35;;;;;;;;;24.50;22.50;;;;;2.31;81.89;101098.19;5037822;28;46223;-87
2022/12/06 03:40:10;;;;;;;;;38.50;32.00;;;;;1.97;82.19;101049.59;5060855;28;45369;-87
2022/12/06 03:42:36;;;;;;;;;35.50;29.00;;;;;2.51;82.44;101136.91;5071993;28;45520;-87
2022/12/06 03:45:04;;;;;;;;;29.25;27.50;;;;;2.28;82.42;101092.91;5054817;28;45554;-87
2022/12/06 03:47:45;;;;;;;;;38.00;32.75;;;;;3.34;82.37;101278.81;5070071;28;45648;-88
2022/12/06 03:50:31;;;;;;;;;28.50;21.50;;;;;2.45;82.37;101123.72;5076484;28;45481;-88
2022/12/06 03:52:58;;;;;;;;;33.00;29.75;;;;;2.46;82.39;101122.84;5064249;28;45572;-87
2022/12/06 03:55:23;;;;;;;;;43.50;34.75;;;;;3.10;82.69;101222.59;5077469;28;45483;-88
2022/12/06 03:57:49;;;;;;;;;35.75;29.25;;;;;3.33;82.76;101264.00;5056109;28;47590;-88
2022/12/06 04:00:15;;;;;;;;;30.25;25.00;;;;;2.73;82.52;101166.94;5066892;28;45477;-88
2022/12/06 04:02:41;;;;;;;;;37.75;29.25;;;;;2.88;82.43;101195.13;5047549;28;45384;-88
2022/12/06 04:05:06;;;;;;;;;35.25;30.00;;;;;2.55;83.14;101138.75;5045074;28;45593;-88
2022/12/06 04:07:32;;;;;;;;;34.50;29.00;;;;;2.59;82.61;101143.16;5069012;28;46716;-88
2022/12/06 04:10:03;;;;;;;;;39.00;31.50;;;;;2.25;82.87;101094.59;5041751;28;45488;-86
2022/12/06 04:15:17;;;;;;;;;41.25;32.75;;;;;3.35;82.52;101265.75;5062931;28;45312;-87
2022/12/06 04:20:28;;;;;;;;;36.75;28.75;;;;;3.37;82.37;101269.31;5064999;28;45442;-86
2022/12/06 04:23:03;;;;;;;;;35.25;28.75;;;;;3.36;82.55;101275.38;5079017;28;45422;-86
2022/12/06 04:25:34;;;;;;;;;41.25;32.25;;;;;3.26;83.17;101243.81;5077119;28;45396;-86
2022/12/06 04:38:57;;;;;;;;;34.50;30.00;;;;;2.92;82.68;101177.81;5064744;28;45923;-86
2022/12/06 04:44:06;;;;;;;;;42.00;33.75;;;;;3.46;83.12;101262.50;5044436;28;45324;-87
2022/12/06 04:46:32;;;;;;;;;37.25;32.00;;;;;3.46;83.28;101257.28;5022063;28;45496;-86
2022/12/06 04:48:58;;;;;;;;;37.00;31.75;;;;;2.77;82.93;101150.50;5019342;28;47396;-88
2022/12/06 04:51:24;;;;;;;;;37.75;31.75;;;;;3.45;83.25;101251.16;5061714;28;45556;-87
2022/12/06 04:53:49;;;;;;;;;34.00;31.00;;;;;2.36;82.79;101068.72;5060046;28;45395;-88
2022/12/06 04:56:16;;;;;;;;;40.75;36.25;;;;;2.58;83.40;101097.03;5057387;28;45359;-88
2022/12/06 04:58:42;;;;;;;;;53.75;38.00;;;;;3.49;82.83;101253.00;5082891;28;46121;-88
2022/12/06 05:01:08;;;;;;;;;37.00;34.50;;;;;3.51;82.75;101271.34;5060463;28;45580;-88
2022/12/06 05:03:33;;;;;;;;;36.25;35.50;;;;;2.83;83.04;101137.56;5046240;28;45530;-87
2022/12/06 05:05:58;;;;;;;;;41.50;34.25;;;;;2.10;83.02;100999.50;5058141;28;45319;-87
2022/12/06 05:08:24;;;;;;;;;38.75;30.75;;;;;3.19;82.57;101201.00;5042025;28;46999;-90
2022/12/06 05:10:49;;;;;;;;;41.75;36.50;;;;;2.40;82.83;101049.66;5054753;28;45447;-89
2022/12/06 05:13:17;;;;;;;;;44.00;30.75;;;;;2.86;82.80;101130.69;5062781;28;45439;-88
2022/12/06 05:15:51;;;;;;;;;40.50;31.50;;;;;2.91;82.74;101136.88;5066055;28;45541;-89
2022/12/06 05:18:16;;;;;;;;;37.50;31.00;;;;;3.11;83.13;101168.59;5042707;28;46026;-89
2022/12/06 05:20:41;;;;;;;;;32.25;30.25;;;;;3.54;83.47;101250.47;5040021;28;45585;-89
2022/12/06 05:23:07;;;;;;;;;35.25;31.25;;;;;2.82;82.62;101127.09;5064176;28;45367;-89
2022/12/06 05:25:32;;;;;;;;;29.50;28.75;;;;;2.74;83.40;101107.81;5072738;28;45300;-89
2022/12/06 05:27:57;;;;;;;;;43.50;34.50;;;;;3.23;83.06;101192.34;5088964;28;46332;-89
2022/12/06 05:30:23;;;;;;;;;44.50;33.00;;;;;2.97;82.96;101147.44;5086516;28;45310;-90
2022/12/06 05:32:48;;;;;;;;;44.50;37.75;;;;;3.22;82.74;101190.63;5054100;28;45767;-89
2022/12/06 05:35:14;;;;;;;;;35.25;32.75;;;;;2.40;83.37;101034.00;5075512;28;44877;-89
2022/12/06 05:37:39;;;;;;;;;38.00;34.75;;;;;2.41;82.77;101041.00;5064510;28;48391;-89
2022/12/06 05:40:05;;;;;;;;;35.00;25.50;;;;;3.63;83.28;101244.53;5061477;28;45321;-90
2022/12/06 05:42:31;;;;;;;;;44.00;36.25;;;;;3.23;83.09;101174.06;5084619;28;45430;-88
2022/12/06 05:44:56;;;;;;;;;31.50;27.25;;;;;2.47;83.22;101035.91;5073233;28;45391;-89
2022/12/06 05:47:21;;;;;;;;;43.25;35.25;;;;;3.33;83.36;101173.41;5022476;28;47036;-90
2022/12/06 05:49:47;;;;;;;;;44.50;31.00;;;;;3.32;83.39;101160.31;5023709;28;45857;-88
2022/12/06 05:52:12;;;;;;;;;36.50;32.75;;;;;2.80;83.25;101079.22;5069978;28;45142;-88
2022/12/06 05:54:38;;;;;;;;;45.25;39.00;;;;;2.04;82.93;100951.56;5052602;28;45186;-90
2022/12/06 05:57:03;;;;;;;;;41.50;36.00;;;;;2.12;83.29;100970.81;5048427;28;47309;-90
2022/12/06 05:59:29;;;;;;;;;34.00;29.25;;;;;3.32;83.05;101157.69;5045525;28;45456;-89
2022/12/06 06:01:54;;;;;;;;;32.75;30.50;;;;;2.64;83.07;101042.34;5047319;28;45435;-88
2022/12/06 06:04:20;;;;;;;;;39.50;33.00;;;;;3.72;83.43;101227.28;5063365;28;45545;-89
2022/12/06 06:06:45;;;;;;;;;43.50;34.75;;;;;2.83;83.49;101066.22;5064381;28;47510;-90
2022/12/06 06:09:11;;;;;;;;;29.50;24.75;;;;;2.45;83.36;101007.16;5064751;28;45451;-90
2022/12/06 06:11:36;;;;;;;;;39.50;32.00;;;;;2.15;83.10;100950.03;5056822;28;45537;-90
2022/12/06 06:14:02;;;;;;;;;34.75;27.25;;;;;3.78;83.49;101249.16;5042020;28;45349;-89
2022/12/06 06:16:27;;;;;;;;;36.25;26.25;;;;;2.10;82.53;100959.50;5062844;28;46281;-91
2022/12/06 06:18:53;;;;;;;;;42.75;37.50;;;;;3.37;82.62;101154.31;5086285;28;45264;-89
2022/12/06 06:21:19;;;;;;;;;36.50;29.50;;;;;2.31;83.03;100993.84;5057246;28;45439;-88
2022/12/06 06:23:44;;;;;;;;;37.75;34.00;;;;;2.74;83.33;101066.03;5027686;28;45631;-89
2022/12/06 06:26:13;;;;;;;;;38.25;33.75;;;;;1.94;82.91;100909.66;5021195;28;46935;-89
2022/12/06 06:28:38;;;;;;;;;48.00;36.25;;;;;2.65;83.08;101049.31;5026306;28;45362;-89
2022/12/06 06:31:05;;;;;;;;;32.25;32.25;;;;;3.85;83.04;101240.59;5031095;28;45172;-88
2022/12/06 06:33:32;;;;;;;;;50.25;32.25;;;;;3.84;82.89;101238.81;5028729;28;45582;-89
2022/12/06 06:35:57;;;;;;;;;44.25;35.25;;;;;3.85;82.97;101251.91;5024328;28;46272;-89
2022/12/06 06:38:23;;;;;;;;;44.00;34.75;;;;;3.86;83.16;101230.16;5042454;28;45838;-89
2022/12/06 06:40:49;;;;;;;;;37.75;32.75;;;;;2.89;82.87;101071.53;5082031;28;45571;-89
2022/12/06 06:43:17;;;;;;;;;41.00;33.00;;;;;3.20;83.14;101130.50;5084682;28;45648;-89
2022/12/06 06:45:53;;;;;;;;;38.75;30.75;;;;;3.88;83.51;101235.41;5059712;28;45901;-89
2022/12/06 06:48:18;;;;;;;;;40.75;33.50;;;;;3.51;83.42;101182.47;5060732;28;45563;-89
2022/12/06 06:50:45;;;;;;;;;35.75;30.25;;;;;2.88;82.97;101090.66;5064743;28;45271;-89
2022/12/06 06:53:10;;;;;;;;;31.25;29.25;;;;;2.91;83.45;101080.28;5088024;28;45509;-90
2022/12/06 06:55:36;;;;;;;;;30.75;24.75;;;;;2.93;83.17;101102.09;5048261;28;47103;-90
2022/12/06 06:58:06;;;;;;;;;30.25;28.25;;;;;3.89;83.24;101247.66;5021711;28;45487;-90
2022/12/06 07:00:34;;;;;;;;;30.50;28.50;;;;;3.19;83.41;101122.63;5039635;28;45313;-90
2022/12/06 07:03:02;;;;;;;;;35.00;24.50;;;;;3.20;83.38;101127.88;5043636;28;45511;-89
2022/12/06 07:05:28;;;;;;;;;40.25;34.75;;;;;3.89;83.08;101234.56;5044970;28;47371;-89
2022/12/06 07:07:57;;;;;;;;;29.75;27.25;;;;;3.78;83.30;101215.16;5068240;28;45985;-90
2022/12/06 07:10:26;;;;;;;;;36.25;29.50;;;;;2.44;83.39;101004.53;5063505;28;45569;-90
2022/12/06 07:12:53;;;;;;;;;34.25;29.50;;;;;2.36;83.22;100953.94;5081987;28;45263;-90
2022/12/06 07:15:19;;;;;;;;;37.50;32.75;;;;;3.52;82.99;101163.28;5076220;28;45195;-90
2022/12/06 07:17:45;;;;;;;;;40.75;36.25;;;;;4.06;83.27;101251.41;5046407;28;45305;-90
2022/12/06 07:20:10;;;;;;;;;40.50;33.25;;;;;3.64;83.39;101188.78;5025095;28;45377;-90
2022/12/06 07:22:36;;;;;;;;;36.25;27.25;;;;;2.81;83.12;101036.59;5040578;28;45573;-89
2022/12/06 07:25:01;;;;;;;;;38.25;31.00;;;;;3.33;82.74;101121.13;5042644;28;47135;-90
2022/12/06 07:27:27;;;;;;;;;38.25;31.00;;;;;3.09;83.25;101068.44;5060794;28;45366;-91
2022/12/06 07:30:01;;;;;;;;;37.00;29.75;;;;;2.55;83.05;100969.09;5065644;28;44921;-90
2022/12/06 07:32:40;;;;;;;;;35.25;31.75;;;;;3.73;83.56;101173.25;5075268;28;44856;-93
2022/12/06 07:35:08;;;;;;;;;34.75;30.75;;;;;2.72;82.96;101000.72;5049778;28;45643;-90
2022/12/06 07:37:34;;;;;;;;;41.75;32.75;;;;;3.77;82.74;101176.81;5059570;28;45397;-91
2022/12/06 07:39:59;;;;;;;;;29.50;29.50;;;;;3.40;82.87;101116.88;5064903;28;45455;-90
2022/12/06 07:45:12;;;;;;;;;36.25;29.00;;;;;3.07;83.10;101044.00;5083866;28;45282;-90
2022/12/06 07:47:43;;;;;;;;;37.25;31.75;;;;;4.23;83.29;101249.09;5067218;28;45312;-91
2022/12/06 07:50:11;;;;;;;;;40.00;33.50;;;;;3.47;83.10;101115.28;5078711;28;45409;-91
2022/12/06 07:52:38;;;;;;;;;33.50;28.75;;;;;3.56;83.28;101118.06;5063633;28;45265;-90
2022/12/06 07:55:05;;;;;;;;;35.50;30.50;;;;;4.29;83.07;101255.31;5050340;28;47116;-91
2022/12/06 07:57:31;;;;;;;;;37.25;31.50;;;;;4.15;83.76;101219.31;5063504;28;45459;-89
2022/12/06 07:59:58;;;;;;;;;40.75;34.00;;;;;2.29;83.04;100906.84;5063931;28;45322;-91
2022/12/06 08:02:27;;;;;;;;;30.50;29.50;;;;;4.31;83.15;101237.88;5065646;28;45303;-90
2022/12/06 08:05:02;;;;;;;;;39.00;29.50;;;;;4.33;83.71;101260.63;5067566;28;45575;-91
2022/12/06 08:07:27;;;;;;;;;31.75;30.75;;;;;2.77;82.82;100996.47;5010801;28;45210;-91
2022/12/06 08:09:53;;;;;;;;;31.00;29.25;;;;;2.86;83.65;100997.50;5067575;28;45305;-90
2022/12/06 08:12:20;;;;;;;;;35.50;32.75;;;;;4.38;83.45;101258.94;5041025;28;45589;-88
2022/12/06 08:14:51;;;;;;;;;30.25;30.25;;;;;4.40;83.19;101262.47;5048974;28;46293;-89
2022/12/06 08:17:16;;;;;;;;;35.75;29.25;;;;;2.76;83.65;100986.00;5065965;28;45324;-89
2022/12/06 08:19:41;;;;;;;;;39.00;33.75;;;;;4.43;83.28;101278.25;5054488;28;45359;-91
2022/12/06 08:22:07;;;;;;;;;45.25;37.50;;;;;2.79;83.02;100997.41;5083720;28;45249;-90
2022/12/06 08:24:32;;;;;;;;;38.50;32.25;;;;;3.86;83.13;101163.91;5081911;28;46477;-91
2022/12/06 08:27:01;;;;;;;;;43.75;36.00;;;;;2.61;83.15;100966.59;5067645;28;45248;-92
2022/12/06 08:29:35;;;;;;;;;45.00;37.75;;;;;4.16;83.26;101221.09;5070616;28;45433;-91
2022/12/06 08:32:00;;;;;;;;;37.50;30.00;;;;;4.08;83.64;101201.75;5077147;28;45557;-91
2022/12/06 08:34:26;;;;;;;;;34.25;29.00;;;;;2.98;83.20;101016.00;5068979;28;47219;-91
2022/12/06 08:36:52;;;;;;;;;39.75;35.25;;;;;4.53;83.60;101283.63;5065318;28;45527;-92
2022/12/06 08:39:24;;;;;;;;;40.50;35.75;;;;;3.76;83.46;101154.13;5083684;28;45174;-89
2022/12/06 08:41:58;;;;;;;;;42.75;36.75;;;;;3.16;83.55;101057.25;5075390;28;44834;-87
2022/12/06 08:44:26;;;;;;;;;43.75;31.50;;;;;3.92;83.61;101185.78;5066342;28;48004;-90
2022/12/06 08:46:53;;;;;;;;;50.25;38.25;;;;;4.56;83.43;101291.53;5057976;28;45493;-89
2022/12/06 08:49:19;;;;;;;;;38.50;35.50;;;;;3.83;83.37;101183.03;5050208;28;44817;-89
2022/12/06 08:51:45;;;;;;;;;51.75;35.75;;;;;3.63;83.41;101146.06;5068068;28;45410;-88
2022/12/06 08:54:14;;;;;;;;;45.25;37.75;;;;;3.88;83.69;101180.47;5053162;28;47518;-88
2022/12/06 08:56:39;;;;;;;;;35.50;30.75;;;;;4.26;83.60;101251.75;5065763;28;45347;-87
2022/12/06 08:59:05;;;;;;;;;49.00;40.75;;;;;3.94;83.47;101198.03;5085955;28;45252;-89
2022/12/06 09:01:32;;;;;;;;;48.00;36.25;;;;;3.29;83.68;101085.34;5084830;28;45524;-89
2022/12/06 09:03:58;;;;;;;;;48.75;39.75;;;;;3.00;83.68;101033.44;5066694;28;47127;-87
2022/12/06 09:06:24;;;;;;;;;53.25;40.00;;;;;3.02;84.13;101047.44;5061519;28;45795;-90
2022/12/06 09:08:50;;;;;;;;;46.25;38.50;;;;;4.61;84.05;101305.56;5083994;28;45440;-90
2022/12/06 09:11:16;;;;;;;;;55.75;41.50;;;;;4.60;83.86;101311.63;5066934;28;45335;-90
2022/12/06 09:13:42;;;;;;;;;43.25;35.75;;;;;2.64;84.01;100987.53;5084245;28;45432;-87
2022/12/06 09:16:14;;;;;;;;;40.75;33.25;;;;;3.41;84.01;101112.56;5072411;28;45394;-89
2022/12/06 09:18:40;;;;;;;;;44.25;37.25;;;;;4.47;84.10;101299.22;5075530;28;45554;-87
2022/12/06 09:21:31;;;;;;;;;43.75;37.50;;;;;3.42;83.84;101122.16;5056898;28;45654;-86
2022/12/06 09:23:57;;;;;;;;;45.25;37.75;;;;;2.87;83.68;101036.69;5073191;28;45442;-87
2022/12/06 09:26:24;;;;;;;;;50.75;38.00;;;;;3.84;83.89;101196.97;5051778;28;45485;-87
2022/12/06 09:28:50;;;;;;;;;47.25;39.25;;;;;3.83;84.14;101192.63;5057213;28;45494;-87
2022/12/06 09:31:18;;;;;;;;;47.25;35.50;;;;;4.58;84.14;101316.84;5056708;28;45568;-87
2022/12/06 09:33:43;;;;;;;;;48.25;38.00;;;;;4.18;84.40;101249.88;5076606;28;46347;-87
2022/12/06 09:36:15;;;;;;;;;38.50;34.75;;;;;4.58;84.40;101324.72;5049948;28;45471;-87
2022/12/06 09:38:43;;;;;;;;;36.50;32.25;;;;;4.59;84.26;101336.09;5077823;28;45681;-87
2022/12/06 09:41:36;;;;;;;;;43.50;35.00;;;;;4.60;84.29;101323.03;5050304;28;45603;-88
2022/12/06 09:44:19;;;;;;;;;38.25;37.75;;;;;4.62;84.37;101325.66;5054447;28;47418;-85
2022/12/06 09:47:06;;;;;;;;;30.75;28.50;;;;;4.26;84.13;101250.88;5057040;28;45447;-87
2022/12/06 09:49:50;;;;;;;;;38.75;34.50;;;;;4.65;84.37;101325.72;5039926;28;45382;-88
2022/12/06 09:52:41;;;;;;;;;34.00;30.00;;;;;4.11;84.03;101227.94;5052214;28;45510;-87
2022/12/06 09:55:22;;;;;;;;;44.00;32.25;;;;;4.66;84.10;101327.47;4966733;28;46197;-88
2022/12/06 09:57:53;;;;;;;;;38.75;34.00;;;;;4.33;84.33;101268.47;4951481;28;45363;-88
2022/12/06 10:00:21;;;;;;;;;37.75;31.50;;;;;3.61;84.27;101141.66;4965356;28;45674;-88
2022/12/06 10:02:49;;;;;;;;;36.25;30.50;;;;;4.71;84.73;101328.44;4974387;28;45510;-88
2022/12/06 10:05:23;;;;;;;;;44.50;34.50;;;;;4.31;84.37;101251.84;4969696;28;47266;-88
2022/12/06 10:08:22;;;;;;;;;37.25;34.50;;;;;4.72;84.48;101324.97;4959353;28;45976;-87
2022/12/06 10:11:06;;;;;;;;;34.75;28.75;;;;;4.75;84.39;101327.63;4967064;28;45524;-88
2022/12/06 10:13:55;;;;;;;;;37.75;31.50;;;;;3.76;84.56;101188.13;4973599;28;45635;-88
2022/12/06 10:16:53;;;;;;;;;40.50;35.25;;;;;3.07;84.01;101059.66;4964754;28;45655;-88
2022/12/06 10:19:31;;;;;;;;;46.00;37.75;;;;;4.77;84.74;101330.28;4943715;28;45378;-88
2022/12/06 10:22:03;;;;;;;;;41.50;31.50;;;;;3.26;84.58;101082.66;4974213;28;45594;-88
2022/12/06 10:24:47;;;;;;;;;32.25;32.25;;;;;4.78;84.96;101332.00;4978137;28;45474;-88
2022/12/06 10:27:33;;;;;;;;;40.25;35.75;;;;;4.41;85.05;101263.34;4953126;28;46658;-88
2022/12/06 10:30:10;;;;;;;;;43.75;32.25;;;;;4.44;84.92;101266.88;4974427;28;45426;-86
2022/12/06 10:32:51;;;;;;;;;54.00;39.25;;;;;3.87;84.61;101177.00;5035236;28;45537;-87
2022/12/06 10:35:37;;;;;;;;;41.50;37.75;;;;;4.78;84.55;101322.44;5054097;28;45449;-88
2022/12/06 10:38:15;;;;;;;;;39.75;37.25;;;;;3.95;84.78;101192.81;5066831;28;45512;-87
2022/12/06 10:40:49;;;;;;;;;40.25;32.50;;;;;4.79;84.57;101333.78;5075498;28;45472;-87
2022/12/06 10:43:28;;;;;;;;;37.00;34.00;;;;;4.73;84.44;101329.31;5050643;28;45392;-88
2022/12/06 10:49:15;;;;;;;;;34.75;32.75;;;;;3.98;84.63;101199.81;5068914;28;45876;-87
2022/12/06 10:51:54;;;;;;;;;30.25;25.25;;;;;3.98;84.65;101190.25;5069126;28;45694;-88
2022/12/06 10:54:32;;;;;;;;;36.75;30.00;;;;;4.33;84.69;101238.78;5044390;28;45470;-89
2022/12/06 10:57:02;;;;;;;;;29.00;25.00;;;;;4.15;84.75;101221.06;5057697;28;45347;-88
2022/12/06 10:59:44;;;;;;;;;38.75;31.00;;;;;4.59;84.73;101294.19;5057807;28;47524;-86
2022/12/06 11:02:21;;;;;;;;;42.50;33.00;;;;;4.85;84.83;101335.63;5063221;28;45372;-90
2022/12/06 11:04:48;;;;;;;;;38.00;29.75;;;;;4.09;84.50;101193.91;5040877;28;45503;-88
2022/12/06 11:07:24;;;;;;;;;36.75;30.00;;;;;4.44;84.78;101252.94;5053893;28;45478;-87
2022/12/06 11:09:52;;;;;;;;;37.25;31.75;;;;;2.81;84.05;100976.53;5057969;28;46174;-88
2022/12/06 11:12:20;;;;;;;;;38.25;29.00;;;;;4.88;84.97;101322.56;5073170;28;45424;-88
2022/12/06 11:14:51;;;;;;;;;36.25;28.75;;;;;4.68;84.45;101291.72;5073654;28;45490;-87
2022/12/06 11:17:30;;;;;;;;;44.75;37.75;;;;;4.19;84.54;101186.22;5056248;28;45538;-88
2022/12/06 11:20:25;;;;;;;;;38.50;34.25;;;;;4.94;84.70;101310.44;5066033;28;45547;-88
2022/12/06 11:23:09;;;;;;;;;44.50;33.75;;;;;4.95;84.56;101308.69;5058071;28;45442;-87
2022/12/06 11:26:03;;;;;;;;;41.25;34.50;;;;;4.96;84.80;101308.75;5055888;28;45459;-89
2022/12/06 11:28:42;;;;;;;;;43.75;32.25;;;;;4.97;84.58;101313.09;5066340;28;45340;-89
2022/12/06 11:31:31;;;;;;;;;37.75;35.50;;;;;4.86;84.89;101295.47;5047733;28;47290;-88
2022/12/06 11:34:21;;;;;;;;;51.75;37.50;;;;;5.02;84.74;101297.44;5059432;28;45545;-88
2022/12/06 11:36:50;;;;;;;;;44.00;36.00;;;;;4.30;84.75;101182.03;5050527;28;45525;-87
2022/12/06 11:39:15;;;;;;;;;42.50;32.25;;;;;4.40;84.52;101186.56;5060920;28;45582;-86
2022/12/06 11:41:49;;;;;;;;;40.00;30.25;;;;;3.73;84.61;101073.88;5067845;28;45590;-87
2022/12/06 11:44:24;;;;;;;;;43.00;33.75;;;;;3.88;85.08;101115.09;5050430;28;45553;-88
2022/12/06 11:46:57;;;;;;;;;49.00;39.75;;;;;3.93;84.93;101113.41;5044636;28;45494;-87
2022/12/06 11:49:40;;;;;;;;;50.00;37.25;;;;;4.71;85.27;101231.53;5063682;28;45563;-87
2022/12/06 11:52:22;;;;;;;;;47.25;39.75;;;;;4.90;85.05;101257.97;5067776;28;46200;-87
2022/12/06 11:54:56;;;;;;;;;46.25;35.75;;;;;5.04;85.07;101290.50;5042783;28;45407;-88
2022/12/06 11:57:30;;;;;;;;;52.75;37.75;;;;;4.63;84.59;101215.69;5063242;28;45523;-89